Time;durP1;ratioP1;P1;durP2;ratioP2;P2;SDS_P1;SDS_P2;PMS_P1;PMS_P2;Temp;Humidity;BMP_temperature;BMP_pressure;BME280_temperature;BME280_humidity;BME280_pressure;Samples;Min_cycle;Max_cycle;Signal;HPM_P1;HPM_P2
2022/01/20 00:00:33;;;;;;;36.42;19.60;;;;;;;-1.76;57.53;94519.27;1664501;83;21178;-48
2022/01/20 00:03:02;;;;;;;25.17;13.60;;;;;;;-1.77;57.38;94512.92;1676663;83;21135;-49
2022/01/20 00:05:46;;;;;;;15.13;11.70;;;;;;;-1.77;57.22;94515.81;1701471;82;21553;-49
2022/01/20 00:08:29;;;;;;;19.00;13.08;;;;;;;-1.74;56.94;94512.92;1702527;83;21111;-48
2022/01/20 00:27:18;;;;;;;17.80;11.50;;;;;;;-1.74;57.31;94478.66;1668234;84;21979;-47
2022/01/20 00:32:47;;;;;;;18.05;11.15;;;;;;;-1.71;57.62;94473.11;1669207;84;21086;-47
2022/01/20 00:37:30;;;;;;;18.20;11.68;;;;;;;-1.67;57.40;94470.61;1684315;83;21065;-48
2022/01/20 00:40:00;;;;;;;20.05;11.40;;;;;;;-1.72;57.43;94466.92;1667522;85;21134;-48
2022/01/20 00:42:28;;;;;;;23.20;14.55;;;;;;;-1.77;57.79;94455.16;1684835;84;21199;-48
2022/01/20 00:44:55;;;;;;;17.12;11.05;;;;;;;-1.77;57.87;94459.20;1661868;84;21094;-48
2022/01/20 00:47:22;;;;;;;17.17;10.20;;;;;;;-1.78;57.98;94444.73;1662360;85;21952;-47
2022/01/20 00:49:49;;;;;;;14.93;9.45;;;;;;;-1.80;58.20;94450.33;1663299;85;21076;-47
2022/01/20 00:52:16;;;;;;;20.82;13.58;;;;;;;-1.85;58.35;94444.70;1675863;84;21148;-48
2022/01/20 00:54:43;;;;;;;18.23;11.90;;;;;;;-1.86;58.49;94440.47;1652676;85;21458;-48
2022/01/20 00:57:09;;;;;;;20.75;12.78;;;;;;;-1.82;58.42;94447.99;1657952;85;21144;-48
2022/01/20 00:59:39;;;;;;;16.77;12.15;;;;;;;-1.72;58.36;94443.25;1671546;85;21003;-48
2022/01/20 01:02:09;;;;;;;17.55;12.50;;;;;;;-1.68;58.24;94434.61;1674028;85;21097;-47
2022/01/20 01:04:37;;;;;;;16.12;11.38;;;;;;;-1.62;57.94;94419.05;1650312;84;21111;-48
2022/01/20 01:07:34;;;;;;;17.57;12.30;;;;;;;-1.59;57.73;94408.05;1654383;85;21025;-47
2022/01/20 01:09:45;;;;;;;28.57;16.95;;;;;;;-1.59;57.60;94400.75;1679435;83;21072;-48
2022/01/20 01:12:19;;;;;;;22.60;14.75;;;;;;;-1.58;57.62;94397.47;1641018;86;21523;-48
2022/01/20 01:14:48;;;;;;;28.73;16.55;;;;;;;-1.57;57.63;94399.80;1680774;83;21077;-48
2022/01/20 01:22:29;;;;;;;31.68;17.75;;;;;;;-1.51;57.40;94379.98;1653306;86;20978;-48
2022/01/20 01:24:54;;;;;;;42.00;23.05;;;;;;;-1.60;57.60;94370.11;1678441;84;21068;-48
2022/01/20 01:27:23;;;;;;;40.52;22.73;;;;;;;-1.59;57.74;94373.00;1673616;84;21036;-47
2022/01/20 01:30:05;;;;;;;24.05;15.53;;;;;;;-1.62;57.75;94365.11;1669454;85;21228;-49
2022/01/20 01:32:24;;;;;;;40.05;22.60;;;;;;;-1.64;57.85;94363.38;1641631;85;21175;-48
2022/01/20 01:34:52;;;;;;;48.40;27.02;;;;;;;-1.63;58.08;94351.44;1658732;84;21455;-49
2022/01/20 01:39:53;;;;;;;14.53;12.13;;;;;;;-1.55;58.14;94344.13;1673902;83;21076;-46
2022/01/20 01:42:25;;;;;;;15.32;11.55;;;;;;;-1.63;58.22;94346.61;1658361;84;21887;-48
2022/01/20 01:44:48;;;;;;;21.23;12.60;;;;;;;-1.70;58.46;94339.27;1680654;83;21141;-48
2022/01/20 01:47:20;;;;;;;15.95;9.85;;;;;;;-1.78;58.79;94332.88;1670210;84;21061;-47
2022/01/20 01:49:46;;;;;;;17.87;11.00;;;;;;;-1.86;59.03;94332.66;1675024;84;21470;-47
2022/01/20 01:52:13;;;;;;;23.62;14.90;;;;;;;-1.96;59.40;94323.94;1668278;85;20963;-48
2022/01/20 01:54:41;;;;;;;45.45;27.80;;;;;;;-2.01;59.52;94314.09;1658049;85;21160;-47
2022/01/20 01:57:09;;;;;;;36.03;22.17;;;;;;;-2.01;59.70;94320.27;1664614;85;21388;-48
2022/01/20 01:59:37;;;;;;;26.97;17.40;;;;;;;-1.99;59.74;94312.58;1659270;86;21081;-48
2022/01/20 02:02:07;;;;;;;32.67;18.48;;;;;;;-1.94;59.58;94300.08;1656924;86;20999;-47
2022/01/20 02:04:37;;;;;;;25.43;15.25;;;;;;;-1.88;59.29;94293.75;1655662;85;21036;-48
2022/01/20 02:07:39;;;;;;;33.33;18.62;;;;;;;-1.82;59.08;94283.58;1637013;86;21249;-47
2022/01/20 02:18:36;;;;;;;12.03;9.23;;;;;;;-1.65;58.29;94266.69;1672810;84;21950;-49
2022/01/20 02:20:43;;;;;;;13.13;9.65;;;;;;;-1.58;58.10;94258.60;1657640;84;21979;-46
2022/01/20 02:23:11;;;;;;;11.88;9.50;;;;;;;-1.62;57.95;94251.09;1653260;85;21632;-47
2022/01/20 02:25:42;;;;;;;15.40;11.08;;;;;;;-1.68;58.22;94231.06;1647146;85;21575;-47
2022/01/20 02:28:10;;;;;;;16.95;10.95;;;;;;;-1.77;58.36;94230.08;1652950;85;21018;-48
2022/01/20 02:30:39;;;;;;;16.48;10.15;;;;;;;-1.79;58.60;94228.90;1653118;86;21453;-47
2022/01/20 02:33:16;;;;;;;13.70;9.50;;;;;;;-1.83;58.67;94203.88;1680027;84;21181;-48
2022/01/20 02:35:47;;;;;;;17.55;10.10;;;;;;;-1.82;58.81;94212.15;1658918;84;21090;-47
2022/01/20 02:38:25;;;;;;;12.35;9.78;;;;;;;-1.89;59.02;94202.71;1672196;84;21591;-46
2022/01/20 02:46:21;;;;;;;24.12;21.65;;;;;;;-1.98;59.69;94178.63;1682005;83;21757;-48
2022/01/20 02:48:50;;;;;;;21.73;13.50;;;;;;;-1.91;59.60;94171.33;1713303;83;20990;-48
2022/01/20 02:51:17;;;;;;;22.80;16.10;;;;;;;-1.84;59.21;94170.55;1693240;83;21482;-46
2022/01/20 02:53:44;;;;;;;19.12;13.58;;;;;;;-1.82;59.09;94159.59;1697300;83;20974;-48
2022/01/20 02:56:11;;;;;;;14.87;9.48;;;;;;;-1.79;59.11;94157.47;1696145;83;21021;-47
2022/01/20 02:58:41;;;;;;;41.90;30.48;;;;;;;-1.77;58.97;94159.80;1675516;83;22342;-47
2022/01/20 03:01:09;;;;;;;22.50;20.27;;;;;;;-1.74;58.92;94154.39;1638983;84;21022;-48
2022/01/20 03:03:40;;;;;;;15.50;11.80;;;;;;;-1.70;58.88;94147.10;1676007;83;20962;-47
2022/01/20 03:06:07;;;;;;;15.53;13.65;;;;;;;-1.69;58.87;94148.64;1613567;86;21700;-47
2022/01/20 03:08:35;;;;;;;26.23;18.12;;;;;;;-1.70;58.80;94140.36;1663995;84;20978;-46
2022/01/20 03:11:02;;;;;;;13.08;9.93;;;;;;;-1.67;58.67;94127.45;1683199;84;21445;-48
2022/01/20 03:13:28;;;;;;;13.28;10.10;;;;;;;-1.62;58.46;94129.77;1701628;83;20991;-48
2022/01/20 03:15:55;;;;;;;11.33;9.55;;;;;;;-1.59;58.37;94119.55;1699048;84;20964;-48
2022/01/20 03:18:25;;;;;;;11.03;9.98;;;;;;;-1.57;58.21;94121.28;1661555;85;21033;-48
2022/01/20 03:20:52;;;;;;;23.73;18.87;;;;;;;-1.56;58.11;94113.38;1690196;84;21492;-48
2022/01/20 03:23:19;;;;;;;14.53;10.95;;;;;;;-1.56;58.22;94103.38;1678514;84;21161;-47
2022/01/20 03:25:46;;;;;;;37.95;29.85;;;;;;;-1.50;58.04;94108.56;1675885;83;21027;-48
2022/01/20 03:28:15;;;;;;;21.20;15.72;;;;;;;-1.45;57.93;94106.06;1662392;84;21076;-47
2022/01/20 03:30:42;;;;;;;13.43;11.08;;;;;;;-1.42;57.86;94099.33;1664050;84;21147;-46
2022/01/20 03:33:11;;;;;;;14.38;10.82;;;;;;;-1.42;57.61;94095.28;1650825;85;21053;-47
2022/01/20 03:35:40;;;;;;;16.12;11.18;;;;;;;-1.43;57.63;94087.57;1686327;84;21213;-47
2022/01/20 03:38:23;;;;;;;11.95;10.48;;;;;;;-1.39;57.49;94091.02;1685188;84;21525;-46
2022/01/20 03:40:51;;;;;;;13.32;10.40;;;;;;;-1.36;57.29;94091.03;1681421;84;21537;-47
2022/01/20 03:43:18;;;;;;;14.05;10.03;;;;;;;-1.37;57.13;94086.80;1636749;85;21013;-48
2022/01/20 03:45:50;;;;;;;10.13;7.87;;;;;;;-1.37;57.12;94074.66;1681748;84;21033;-47
2022/01/20 03:48:13;;;;;;;11.18;8.60;;;;;;;-1.31;56.82;94072.34;1660572;84;21161;-47
2022/01/20 03:50:59;;;;;;;9.15;8.15;;;;;;;-1.25;56.75;94075.61;1662311;84;20973;-47
2022/01/20 03:53:32;;;;;;;8.73;7.58;;;;;;;-1.18;56.48;94073.48;1677332;84;20981;-45
2022/01/20 03:55:59;;;;;;;13.48;8.28;;;;;;;-1.15;56.35;94065.95;1686457;83;21040;-46
2022/01/20 03:58:30;;;;;;;13.10;8.55;;;;;;;-1.11;56.32;94072.10;1674345;84;20970;-47
2022/01/20 04:00:57;;;;;;;13.62;9.10;;;;;;;-1.11;56.25;94066.70;1678935;84;21212;-47
2022/01/20 04:03:26;;;;;;;12.03;9.38;;;;;;;-1.13;56.32;94073.83;1695191;83;21587;-48
2022/01/20 04:05:56;;;;;;;15.40;10.70;;;;;;;-1.19;56.39;94089.45;1666298;84;21033;-47
2022/01/20 04:08:32;;;;;;;28.30;19.10;;;;;;;-1.19;56.43;94088.09;1686836;84;21472;-48
2022/01/20 04:11:04;;;;;;;20.10;14.47;;;;;;;-1.12;56.25;94084.05;1679232;84;21505;-47
2022/01/20 04:13:32;;;;;;;17.00;13.20;;;;;;;-1.11;56.10;94076.15;1686956;84;21528;-48
2022/01/20 04:16:15;;;;;;;20.72;14.30;;;;;;;-1.11;56.10;94081.55;1664464;84;21033;-47
2022/01/20 04:18:52;;;;;;;21.33;13.10;;;;;;;-1.00;55.89;94078.25;1689869;84;21036;-48
2022/01/20 04:21:17;;;;;;;26.73;15.63;;;;;;;-0.95;55.73;94085.94;1682466;83;21005;-47
2022/01/20 04:23:46;;;;;;;17.37;11.48;;;;;;;-0.93;55.61;94086.31;1690613;83;21000;-47
2022/01/20 04:26:13;;;;;;;22.55;11.45;;;;;;;-0.91;55.37;94083.99;1672768;84;21144;-48
2022/01/20 04:28:39;;;;;;;25.27;16.32;;;;;;;-0.89;55.34;94087.06;1682347;83;21521;-47
2022/01/20 04:31:06;;;;;;;19.65;13.55;;;;;;;-0.84;54.91;94090.14;1694564;84;20998;-48
2022/01/20 04:33:33;;;;;;;17.67;13.70;;;;;;;-0.78;54.82;94081.06;1695798;82;21002;-48
2022/01/20 04:36:05;;;;;;;21.17;13.80;;;;;;;-0.73;54.66;94080.66;1682634;84;21699;-48
2022/01/20 04:38:33;;;;;;;31.45;18.98;;;;;;;-0.71;54.39;94072.92;1679138;84;26441;-48
2022/01/20 04:41:00;;;;;;;27.65;15.03;;;;;;;-0.72;54.46;94080.27;1684892;84;21002;-47
2022/01/20 04:43:31;;;;;;;53.13;31.20;;;;;;;-0.79;54.41;94078.17;1710567;82;21029;-48
2022/01/20 04:46:29;;;;;;;77.27;33.30;;;;;;;-0.89;54.73;94084.37;1691879;83;20977;-49
2022/01/20 04:48:45;;;;;;;52.58;23.55;;;;;;;-0.98;55.09;94081.33;1663673;84;21011;-48
2022/01/20 04:59:18;;;;;;;40.92;19.57;;;;;;;-1.31;55.64;94046.72;1682965;83;21053;-47
2022/01/20 05:01:46;;;;;;;52.38;23.35;;;;;;;-1.44;56.13;94049.63;1659038;85;21154;-49
2022/01/20 05:04:17;;;;;;;38.65;21.62;;;;;;;-1.44;56.24;94053.67;1687186;83;21831;-48
2022/01/20 05:07:05;;;;;;;36.20;18.65;;;;;;;-1.47;56.37;94047.70;1671597;83;20978;-47
2022/01/20 05:09:33;;;;;;;25.65;15.00;;;;;;;-1.47;56.61;94043.66;1675555;84;21127;-48
2022/01/20 05:12:03;;;;;;;60.23;32.78;;;;;;;-1.40;56.61;94028.80;1685719;83;21098;-48
2022/01/20 05:14:29;;;;;;;59.03;26.90;;;;;;;-1.33;56.26;94036.89;1672198;83;21049;-47
2022/01/20 05:16:57;;;;;;;54.15;27.73;;;;;;;-1.38;56.33;94023.22;1687764;84;21967;-48
2022/01/20 05:19:27;;;;;;;56.28;30.85;;;;;;;-1.36;56.26;94022.25;1682054;84;21042;-49
2022/01/20 05:21:53;;;;;;;68.05;36.70;;;;;;;-1.40;56.21;94009.92;1683554;85;21009;-48
2022/01/20 05:24:22;;;;;;;51.75;30.75;;;;;;;-1.40;56.17;94013.41;1675411;82;20978;-50
2022/01/20 05:26:51;;;;;;;66.15;35.98;;;;;;;-1.45;56.24;94003.59;1678323;84;20949;-46
2022/01/20 05:29:24;;;;;;;67.32;36.95;;;;;;;-1.49;56.31;94005.53;1688558;84;21152;-50
2022/01/20 05:31:52;;;;;;;45.58;26.93;;;;;;;-1.57;56.36;93997.25;1689523;84;21034;-50
2022/01/20 05:34:19;;;;;;;81.72;42.23;;;;;;;-1.59;56.51;93989.56;1688887;83;21207;-50
2022/01/20 05:36:48;;;;;;;46.53;23.42;;;;;;;-1.68;56.52;93993.83;1685113;84;20985;-49
2022/01/20 05:39:17;;;;;;;42.20;22.40;;;;;;;-1.80;56.66;93994.22;1682799;84;20978;-49
2022/01/20 05:41:44;;;;;;;39.60;21.20;;;;;;;-1.82;56.73;94002.48;1657498;84;21783;-48
2022/01/20 05:44:25;;;;;;;38.35;21.93;;;;;;;-1.91;56.72;93992.13;1660782;85;21057;-48
2022/01/20 05:46:53;;;;;;;38.25;23.30;;;;;;;-1.94;57.03;93992.12;1706151;83;21143;-48
2022/01/20 05:49:27;;;;;;;47.27;28.32;;;;;;;-1.89;56.51;94005.98;1672482;85;21205;-47
2022/01/20 05:51:55;;;;;;;47.65;27.50;;;;;;;-1.87;56.58;94004.23;1677640;83;20994;-47
2022/01/20 05:54:24;;;;;;;52.03;32.15;;;;;;;-1.84;56.68;94010.98;1679740;84;21152;-48
2022/01/20 05:56:53;;;;;;;53.42;37.88;;;;;;;-1.72;56.64;94028.86;1679106;84;21524;-48
2022/01/20 05:59:22;;;;;;;47.53;29.57;;;;;;;-1.54;56.21;94030.20;1673595;84;21050;-48
2022/01/20 06:01:58;;;;;;;50.80;26.90;;;;;;;-1.36;55.68;94024.95;1680816;83;21054;-49
2022/01/20 06:04:25;;;;;;;83.78;50.33;;;;;;;-1.33;55.44;94032.85;1683386;84;21504;-47
2022/01/20 06:06:52;;;;;;;80.05;43.85;;;;;;;-1.38;55.47;94045.36;1681733;84;21147;-49
2022/01/20 06:09:21;;;;;;;58.25;35.05;;;;;;;-1.42;55.58;94045.95;1681813;84;21005;-48
2022/01/20 06:11:51;;;;;;;49.33;31.55;;;;;;;-1.42;55.47;94041.91;1676666;84;21112;-48
2022/01/20 06:14:18;;;;;;;33.08;19.98;;;;;;;-1.46;55.36;94042.50;1666929;84;21052;-49
2022/01/20 06:16:45;;;;;;;28.62;18.00;;;;;;;-1.50;55.39;94043.09;1682418;83;21010;-48
2022/01/20 06:19:12;;;;;;;31.02;18.27;;;;;;;-1.50;55.38;94039.80;1689684;84;21149;-49
2022/01/20 06:21:41;;;;;;;42.80;23.05;;;;;;;-1.46;55.42;94037.11;1692571;83;21097;-49
2022/01/20 06:24:08;;;;;;;508.70;255.47;;;;;;;-1.37;55.32;94048.25;1690309;83;21490;-48
2022/01/20 06:26:37;;;;;;;457.62;254.20;;;;;;;-1.31;55.25;94041.33;1676410;83;20963;-49
2022/01/20 06:29:04;;;;;;;106.45;56.63;;;;;;;-1.24;55.31;94025.11;1694666;83;21072;-49
2022/01/20 06:31:32;;;;;;;106.97;55.98;;;;;;;-1.11;55.26;94032.98;1687328;83;21947;-49
2022/01/20 06:34:01;;;;;;;67.15;36.05;;;;;;;-0.97;55.20;94027.53;1678509;83;21027;-51
2022/01/20 06:36:28;;;;;;;31.42;20.68;;;;;;;-0.86;55.25;94030.95;1679208;83;21096;-57
2022/01/20 06:38:55;;;;;;;24.47;15.15;;;;;;;-0.82;55.04;94020.89;1692083;83;21074;-51
2022/01/20 06:41:23;;;;;;;28.60;16.73;;;;;;;-0.80;54.98;94024.00;1657238;85;21111;-52
2022/01/20 06:43:51;;;;;;;20.75;14.30;;;;;;;-0.74;55.01;94017.02;1680103;83;21176;-49
2022/01/20 06:46:18;;;;;;;17.57;11.35;;;;;;;-0.72;55.14;94013.34;1667349;83;21064;-49
2022/01/20 06:48:56;;;;;;;15.95;11.00;;;;;;;-0.72;55.40;94010.64;1670263;83;21046;-50
2022/01/20 06:51:31;;;;;;;17.73;11.25;;;;;;;-0.64;56.05;94013.48;1681154;83;21543;-48
2022/01/20 06:54:03;;;;;;;33.73;18.70;;;;;;;-0.47;56.46;94000.45;1682658;83;21057;-49
2022/01/20 06:56:36;;;;;;;37.95;21.42;;;;;;;-0.30;56.43;93990.13;1681741;83;22158;-51
2022/01/20 06:59:03;;;;;;;51.30;26.23;;;;;;;-0.17;56.28;93980.38;1658003;83;26838;-50
2022/01/20 07:01:35;;;;;;;53.23;28.23;;;;;;;-0.09;56.20;93983.98;1689185;83;21212;-48
2022/01/20 07:04:03;;;;;;;32.95;19.07;;;;;;;-0.07;56.63;93976.84;1663937;83;21123;-51
2022/01/20 07:06:29;;;;;;;48.65;25.02;;;;;;;0.03;57.76;93978.86;1668720;83;21084;-47
2022/01/20 07:09:08;;;;;;;151.78;58.00;;;;;;;0.21;58.22;93982.19;1664760;83;21850;-49
2022/01/20 07:11:36;;;;;;;149.85;56.65;;;;;;;0.48;58.25;93964.73;1671148;83;21017;-51
2022/01/20 07:14:04;;;;;;;119.53;46.85;;;;;;;0.73;58.20;93962.52;1682692;83;20989;-51
2022/01/20 07:16:34;;;;;;;93.75;48.05;;;;;;;0.97;57.75;93969.01;1659129;85;21002;-49
2022/01/20 07:19:01;;;;;;;75.42;38.35;;;;;;;1.10;56.55;93956.48;1628494;86;21077;-52
2022/01/20 07:21:28;;;;;;;60.23;29.10;;;;;;;1.10;56.22;93956.48;1605107;87;21170;-48
2022/01/20 07:23:57;;;;;;;24.82;15.72;;;;;;;1.15;57.07;93954.66;1632410;85;21073;-47
2022/01/20 07:26:24;;;;;;;24.43;13.85;;;;;;;1.25;57.10;93949.71;1630318;86;21082;-48
2022/01/20 07:28:53;;;;;;;18.42;12.93;;;;;;;1.40;57.50;93970.02;1648450;85;21082;-48
2022/01/20 07:31:24;;;;;;;11.97;9.68;;;;;;;1.59;57.72;93950.40;1640394;85;21088;-49
2022/01/20 07:33:50;;;;;;;17.80;13.48;;;;;;;1.76;57.37;93935.81;1660459;85;21983;-52
2022/01/20 07:36:17;;;;;;;20.27;15.88;;;;;;;1.91;57.18;93942.53;1643020;86;21067;-48
2022/01/20 07:38:46;;;;;;;23.52;17.32;;;;;;;2.07;57.15;93937.23;1641167;86;20984;-49
2022/01/20 07:41:13;;;;;;;16.17;12.23;;;;;;;2.21;56.78;93941.08;1636066;86;21085;-52
2022/01/20 07:43:42;;;;;;;13.65;9.75;;;;;;;2.29;56.54;93914.77;1636923;85;20995;-47
2022/01/20 07:46:13;;;;;;;13.60;10.85;;;;;;;2.33;56.42;93934.46;1677507;83;21968;-46
2022/01/20 07:48:50;;;;;;;13.75;9.25;;;;;;;2.33;56.70;93925.56;1679479;83;21070;-50
2022/01/20 07:51:19;;;;;;;15.15;9.85;;;;;;;2.33;56.84;93907.93;1647871;84;21064;-49
2022/01/20 07:53:46;;;;;;;12.15;9.08;;;;;;;2.30;56.93;93920.97;1666453;83;21065;-48
2022/01/20 07:56:13;;;;;;;15.35;10.23;;;;;;;2.33;57.14;93899.79;1687878;82;21037;-49
2022/01/20 07:58:41;;;;;;;12.70;10.40;;;;;;;2.36;57.22;93912.52;1676788;83;21813;-49
2022/01/20 08:01:08;;;;;;;13.35;8.90;;;;;;;2.39;56.96;93934.17;1676810;83;21496;-49
2022/01/20 08:03:36;;;;;;;11.43;8.95;;;;;;;2.39;56.86;93936.11;1679008;83;21079;-49
2022/01/20 08:06:05;;;;;;;10.55;9.13;;;;;;;2.39;56.87;93927.39;1670692;83;21441;-47
2022/01/20 08:08:37;;;;;;;11.50;8.53;;;;;;;2.47;56.72;93948.39;1686264;83;20998;-49
2022/01/20 08:11:11;;;;;;;11.00;7.85;;;;;;;2.54;56.55;93930.00;1630542;83;21368;-49
2022/01/20 08:13:39;;;;;;;12.23;10.53;;;;;;;2.62;55.80;93965.94;1667030;83;21068;-49
2022/01/20 08:16:06;;;;;;;12.47;8.25;;;;;;;2.64;56.00;93949.99;1675766;83;21114;-50
2022/01/20 08:18:34;;;;;;;11.43;9.05;;;;;;;2.73;56.03;93978.73;1660017;84;21564;-49
2022/01/20 08:21:01;;;;;;;10.08;8.38;;;;;;;2.84;55.79;93967.09;1628795;86;21124;-47
2022/01/20 08:23:29;;;;;;;9.40;8.00;;;;;;;2.89;55.76;93965.25;1667411;84;21207;-49
2022/01/20 08:26:00;;;;;;;12.00;8.95;;;;;;;2.95;55.55;93977.16;1684162;83;20994;-49
2022/01/20 08:28:27;;;;;;;16.87;11.50;;;;;;;3.04;55.50;93984.17;1681526;83;21126;-49
2022/01/20 08:30:56;;;;;;;9.20;8.30;;;;;;;3.06;55.68;93988.59;1676002;83;21487;-48
2022/01/20 08:33:23;;;;;;;20.27;11.85;;;;;;;3.06;55.69;93988.59;1685830;83;21578;-49
2022/01/20 08:35:52;;;;;;;13.40;9.78;;;;;;;3.06;55.94;93981.20;1677392;83;21154;-50
2022/01/20 08:38:21;;;;;;;10.88;9.08;;;;;;;3.09;56.00;93998.62;1623966;86;21029;-50
2022/01/20 08:40:48;;;;;;;16.05;9.93;;;;;;;3.12;56.29;94008.08;1686675;83;21322;-50
2022/01/20 08:43:15;;;;;;;19.17;11.22;;;;;;;3.19;56.26;94009.86;1674104;83;21060;-50
2022/01/20 08:45:47;;;;;;;25.95;15.00;;;;;;;3.28;56.46;94012.20;1680671;83;21100;-51
2022/01/20 08:48:15;;;;;;;11.22;9.15;;;;;;;3.31;56.40;94006.52;1655275;84;22262;-52
2022/01/20 08:51:04;;;;;;;17.02;12.85;;;;;;;3.35;56.34;94008.58;1655358;84;21083;-52
2022/01/20 08:53:33;;;;;;;63.65;32.90;;;;;;;3.37;56.45;94002.13;1586540;87;21103;-49
2022/01/20 08:56:01;;;;;;;15.93;11.45;;;;;;;3.36;56.67;93997.88;1658637;85;21574;-48
2022/01/20 08:58:28;;;;;;;14.95;10.88;;;;;;;3.29;56.72;94003.47;1654231;85;21597;-52
2022/01/20 09:01:03;;;;;;;21.80;13.50;;;;;;;3.22;57.05;94013.13;1606481;87;22097;-48
2022/01/20 09:03:32;;;;;;;34.40;20.55;;;;;;;3.24;57.33;94009.39;1589127;86;21127;-51
2022/01/20 09:06:02;;;;;;;24.65;16.10;;;;;;;3.26;57.28;94005.05;1581700;88;21126;-53
2022/01/20 09:08:33;;;;;;;24.43;16.20;;;;;;;3.30;57.30;94002.28;1648489;85;21071;-48
2022/01/20 09:11:17;;;;;;;26.97;19.17;;;;;;;3.33;57.39;94009.59;1642932;85;21020;-49
2022/01/20 09:16:25;;;;;;;23.27;14.13;;;;;;;3.31;57.41;93990.22;1629020;85;21621;-50
2022/01/20 09:18:54;;;;;;;27.52;16.50;;;;;;;3.24;57.59;93996.56;1657732;85;21501;-48
2022/01/20 09:21:23;;;;;;;35.85;21.77;;;;;;;3.23;57.54;93996.39;1650574;84;21516;-51
2022/01/20 09:23:52;;;;;;;21.50;15.30;;;;;;;3.23;57.80;94010.58;1616690;86;21095;-48
2022/01/20 09:26:20;;;;;;;11.95;8.95;;;;;;;3.25;57.44;94003.53;1619220;86;21836;-51
2022/01/20 09:28:49;;;;;;;23.02;15.35;;;;;;;3.27;57.45;94005.84;1608424;87;21568;-46
2022/01/20 09:31:24;;;;;;;29.57;18.07;;;;;;;3.23;58.02;93992.92;1605526;87;21474;-48
2022/01/20 09:33:53;;;;;;;27.98;18.67;;;;;;;3.17;57.87;94003.50;1624483;85;21099;-50
2022/01/20 09:36:22;;;;;;;16.60;11.05;;;;;;;3.10;58.07;94003.66;1591109;87;21060;-47
2022/01/20 09:38:49;;;;;;;19.30;12.70;;;;;;;3.10;57.94;93986.57;1649485;85;21788;-47
2022/01/20 09:41:18;;;;;;;21.52;15.93;;;;;;;3.19;57.67;93986.77;1644804;85;21066;-49
2022/01/20 09:43:45;;;;;;;19.73;13.83;;;;;;;3.36;57.49;93992.44;1638204;86;21193;-49
2022/01/20 09:46:13;;;;;;;14.10;10.32;;;;;;;3.44;57.19;93989.77;1634263;85;21119;-49
2022/01/20 09:48:41;;;;;;;17.87;12.85;;;;;;;3.54;56.81;93976.70;1661161;84;21033;-50
2022/01/20 09:51:13;;;;;;;27.35;17.55;;;;;;;3.61;57.02;93973.06;1660670;84;21186;-50
2022/01/20 09:53:59;;;;;;;17.77;11.78;;;;;;;3.70;56.58;93976.73;1659103;84;21417;-48
2022/01/20 09:56:37;;;;;;;32.00;20.25;;;;;;;3.64;56.35;93967.56;1646848;85;21554;-51
2022/01/20 09:59:06;;;;;;;22.48;13.95;;;;;;;3.62;56.38;93974.02;1668420;84;21058;-47
2022/01/20 10:01:45;;;;;;;22.93;16.60;;;;;;;3.61;55.80;93974.42;1627586;83;21095;-50
2022/01/20 10:04:30;;;;;;;22.80;19.77;;;;;;;3.49;55.65;93978.56;1653570;84;21914;-49
2022/01/20 10:07:03;;;;;;;;;;;;;;;3.46;55.71;93979.98;1639113;84;21089;-48
2022/01/20 10:09:39;;;;;;;20.05;11.10;;;;;;;3.48;54.41;93981.11;1652220;85;20202;-50
2022/01/20 10:12:15;;;;;;;21.30;12.87;;;;;;;3.40;54.41;93976.84;1621843;85;21511;-51
2022/01/20 10:14:54;;;;;;;13.68;11.00;;;;;;;3.29;54.84;93987.94;1657184;84;21590;-49
2022/01/20 10:17:40;;;;;;;16.48;11.40;;;;;;;3.27;54.71;93971.86;1659501;83;22381;-52
2022/01/20 10:20:09;;;;;;;31.62;20.23;;;;;;;3.34;54.46;93970.34;1668114;84;21962;-47
2022/01/20 10:22:55;;;;;;;38.90;23.80;;;;;;;3.43;54.23;93962.41;1643132;84;21207;-53
2022/01/20 10:25:37;;;;;;;17.07;11.63;;;;;;;3.47;54.14;93959.80;1665388;84;21020;-53
2022/01/20 10:28:16;;;;;;;10.88;8.88;;;;;;;3.44;52.54;93952.45;1642502;85;21081;-49
2022/01/20 10:30:49;;;;;;;12.50;9.88;;;;;;;3.37;52.17;93955.34;1641725;84;21092;-50
2022/01/20 10:33:19;;;;;;;39.70;27.98;;;;;;;3.28;52.43;93964.64;1657947;83;21131;-49
2022/01/20 10:35:47;;;;;;;23.50;14.85;;;;;;;3.19;52.76;93959.59;1675360;84;21001;-48
2022/01/20 10:38:17;;;;;;;30.27;17.90;;;;;;;3.03;52.95;93968.45;1644600;84;21164;-48
2022/01/20 10:40:54;;;;;;;29.32;18.48;;;;;;;2.94;53.39;93973.69;1655967;84;21064;-49
2022/01/20 10:43:29;;;;;;;23.22;18.37;;;;;;;2.91;53.67;93969.06;1645755;86;21333;-49
2022/01/20 10:46:04;;;;;;;;;;;;;;;2.83;53.88;93966.92;1644232;85;21081;-49
2022/01/20 10:48:31;;;;;;;26.10;20.35;;;;;;;2.80;54.12;93963.66;1652878;85;20316;-49
2022/01/20 10:50:59;;;;;;;22.15;15.95;;;;;;;2.71;54.35;93959.38;1643266;85;21854;-50
2022/01/20 10:53:26;;;;;;;50.65;30.65;;;;;;;2.74;54.39;93959.91;1649465;85;21639;-48
2022/01/20 10:56:08;;;;;;;20.72;17.12;;;;;;;2.76;54.52;93964.32;1625779;85;41005;-51
2022/01/20 10:58:38;;;;;;;18.17;12.63;;;;;;;2.67;54.85;93976.34;1655781;84;21029;-49
2022/01/20 11:01:17;;;;;;;20.05;11.68;;;;;;;2.51;54.87;93964.02;1660519;84;21051;-47
2022/01/20 11:03:46;;;;;;;13.62;10.00;;;;;;;2.41;55.50;93960.88;1653917;85;21053;-48
2022/01/20 11:06:18;;;;;;;18.60;13.00;;;;;;;2.29;56.56;93956.83;1654987;84;21491;-50
2022/01/20 11:08:47;;;;;;;27.65;19.12;;;;;;;2.16;56.94;93949.70;1663100;85;22319;-49
2022/01/20 11:11:18;;;;;;;43.68;24.00;;;;;;;2.04;57.69;93945.62;1664437;84;21038;-48
2022/01/20 11:13:47;;;;;;;52.98;31.10;;;;;;;1.96;58.52;93925.81;1611807;85;21025;-48
2022/01/20 11:16:14;;;;;;;41.08;23.67;;;;;;;1.90;59.24;93922.02;1626967;86;21147;-48
2022/01/20 11:18:44;;;;;;;24.80;17.87;;;;;;;1.95;58.70;93908.02;1657762;85;21073;-51
2022/01/20 11:21:14;;;;;;;21.50;15.30;;;;;;;1.96;59.58;93914.97;1673615;85;21346;-48
2022/01/20 11:23:42;;;;;;;17.27;12.60;;;;;;;1.96;59.60;93912.25;1638615;86;21065;-48
2022/01/20 11:26:28;;;;;;;23.75;14.73;;;;;;;1.92;59.53;93918.33;1668964;84;21534;-48
2022/01/20 11:29:13;;;;;;;21.45;13.45;;;;;;;1.89;59.41;93905.57;1670695;85;21529;-48
2022/01/20 11:31:40;;;;;;;25.05;15.05;;;;;;;1.94;59.37;93905.13;1633730;85;21076;-48
2022/01/20 11:34:16;;;;;;;27.37;15.10;;;;;;;2.00;59.27;93897.44;1639661;85;22235;-50
2022/01/20 11:36:49;;;;;;;32.83;22.10;;;;;;;2.05;59.16;93900.27;1645390;86;21178;-49
2022/01/20 11:39:20;;;;;;;;;;;;;;;2.10;59.11;93884.91;1643327;85;21056;-47
2022/01/20 11:41:51;;;;;;;49.85;30.82;;;;;;;2.21;59.09;93869.19;1596016;87;20187;-51
2022/01/20 11:44:28;;;;;;;64.17;39.55;;;;;;;2.27;58.96;93863.45;1588963;86;21229;-48
2022/01/20 11:47:07;;;;;;;53.58;37.70;;;;;;;2.32;58.51;93859.66;1618421;86;21127;-48
2022/01/20 11:49:36;;;;;;;63.45;31.42;;;;;;;2.38;58.46;93853.95;1626435;86;21109;-48
2022/01/20 11:52:08;;;;;;;51.95;37.48;;;;;;;2.47;58.49;93841.19;1637093;86;20986;-48
2022/01/20 11:54:43;;;;;;;28.73;18.27;;;;;;;2.49;58.16;93840.17;1633762;85;21355;-48
2022/01/20 11:57:22;;;;;;;32.63;24.43;;;;;;;2.50;58.36;93833.56;1643939;85;21074;-48
2022/01/20 11:59:55;;;;;;;27.42;20.17;;;;;;;2.49;58.30;93832.78;1633061;86;22041;-46
2022/01/20 12:02:32;;;;;;;35.97;25.13;;;;;;;2.60;58.19;93812.20;1629563;85;21461;-49
2022/01/20 12:05:02;;;;;;;18.62;14.73;;;;;;;2.74;58.05;93807.84;1625893;86;21119;-49
2022/01/20 12:07:33;;;;;;;21.37;13.50;;;;;;;2.88;58.00;93792.62;1604888;87;21112;-48
2022/01/20 12:10:15;;;;;;;18.85;11.83;;;;;;;2.95;57.81;93793.81;1614911;86;21156;-50
2022/01/20 12:12:42;;;;;;;12.98;11.57;;;;;;;2.89;58.06;93786.00;1597823;87;21573;-53
2022/01/20 12:15:14;;;;;;;15.90;12.90;;;;;;;2.77;58.35;93779.85;1619709;86;21063;-47
2022/01/20 12:17:54;;;;;;;15.80;10.65;;;;;;;2.75;58.60;93765.94;1618883;86;21135;-51
2022/01/20 12:20:22;;;;;;;18.25;11.70;;;;;;;2.80;58.81;93758.64;1658665;84;21033;-50
2022/01/20 12:22:49;;;;;;;13.32;10.20;;;;;;;2.88;58.70;93746.45;1660679;84;22470;-49
2022/01/20 12:25:24;;;;;;;12.33;9.55;;;;;;;2.90;58.67;93744.08;1650221;84;21167;-49
2022/01/20 12:28:09;;;;;;;20.20;13.10;;;;;;;2.93;58.60;93731.00;1646609;85;21127;-48
2022/01/20 12:30:40;;;;;;;24.50;13.90;;;;;;;2.90;58.56;93729.89;1649596;84;21054;-47